sensor_id;sensor_type;location;lat;lon;timestamp;P1;durP1;ratioP1;P2;durP2;ratioP2
60973;SDS011;46846;51.528;5.076;2023-05-10T00:01:23;432.40;;;410.90;;
60973;SDS011;46846;51.528;5.076;2023-05-10T00:03:48;433.42;;;411.73;;
60973;SDS011;46846;51.528;5.076;2023-05-10T00:06:14;423.73;;;402.23;;
60973;SDS011;46846;51.528;5.076;2023-05-10T00:08:39;427.55;;;406.05;;
60973;SDS011;46846;51.528;5.076;2023-05-10T00:11:04;436.05;;;413.58;;
60973;SDS011;46846;51.528;5.076;2023-05-10T00:13:30;420.55;;;398.95;;
60973;SDS011;46846;51.528;5.076;2023-05-10T00:15:56;415.05;;;393.83;;
60973;SDS011;46846;51.528;5.076;2023-05-10T00:18:21;436.48;;;414.33;;
60973;SDS011;46846;51.528;5.076;2023-05-10T00:20:47;438.15;;;416.27;;
60973;SDS011;46846;51.528;5.076;2023-05-10T00:23:13;438.70;;;416.45;;
60973;SDS011;46846;51.528;5.076;2023-05-10T00:25:39;404.48;;;384.10;;
60973;SDS011;46846;51.528;5.076;2023-05-10T00:28:04;407.95;;;387.30;;
60973;SDS011;46846;51.528;5.076;2023-05-10T00:30:30;411.00;;;390.23;;
60973;SDS011;46846;51.528;5.076;2023-05-10T00:32:55;420.73;;;399.50;;
60973;SDS011;46846;51.528;5.076;2023-05-10T00:35:21;423.10;;;401.60;;
60973;SDS011;46846;51.528;5.076;2023-05-10T00:37:46;424.27;;;403.10;;
60973;SDS011;46846;51.528;5.076;2023-05-10T00:40:12;412.75;;;391.13;;
60973;SDS011;46846;51.528;5.076;2023-05-10T00:42:37;416.58;;;395.38;;
60973;SDS011;46846;51.528;5.076;2023-05-10T00:45:03;418.73;;;397.58;;
60973;SDS011;46846;51.528;5.076;2023-05-10T00:47:29;414.02;;;392.75;;
60973;SDS011;46846;51.528;5.076;2023-05-10T00:49:54;423.55;;;402.30;;
60973;SDS011;46846;51.528;5.076;2023-05-10T00:52:20;428.45;;;406.55;;
60973;SDS011;46846;51.528;5.076;2023-05-10T00:54:48;421.55;;;400.35;;
60973;SDS011;46846;51.528;5.076;2023-05-10T00:57:17;418.58;;;397.27;;
60973;SDS011;46846;51.528;5.076;2023-05-10T00:59:42;402.40;;;381.50;;
60973;SDS011;46846;51.528;5.076;2023-05-10T01:02:08;409.80;;;388.30;;
60973;SDS011;46846;51.528;5.076;2023-05-10T01:04:33;403.10;;;381.73;;
60973;SDS011;46846;51.528;5.076;2023-05-10T01:07:00;435.00;;;412.92;;
60973;SDS011;46846;51.528;5.076;2023-05-10T01:09:26;420.55;;;398.50;;
60973;SDS011;46846;51.528;5.076;2023-05-10T01:11:52;416.73;;;395.27;;
60973;SDS011;46846;51.528;5.076;2023-05-10T01:14:19;427.77;;;405.80;;
60973;SDS011;46846;51.528;5.076;2023-05-10T01:16:45;414.33;;;392.63;;
60973;SDS011;46846;51.528;5.076;2023-05-10T01:19:20;429.42;;;407.05;;
60973;SDS011;46846;51.528;5.076;2023-05-10T01:36:48;397.13;;;376.13;;
60973;SDS011;46846;51.528;5.076;2023-05-10T01:44:40;416.67;;;393.88;;
60973;SDS011;46846;51.528;5.076;2023-05-10T01:47:14;400.55;;;379.48;;
60973;SDS011;46846;51.528;5.076;2023-05-10T01:49:50;411.33;;;389.63;;
60973;SDS011;46846;51.528;5.076;2023-05-10T01:52:19;420.73;;;398.67;;
60973;SDS011;46846;51.528;5.076;2023-05-10T01:54:53;418.52;;;395.63;;
60973;SDS011;46846;51.528;5.076;2023-05-10T01:57:38;410.00;;;388.45;;
60973;SDS011;46846;51.528;5.076;2023-05-10T02:00:07;409.85;;;388.08;;
60973;SDS011;46846;51.528;5.076;2023-05-10T02:02:37;424.55;;;401.50;;
60973;SDS011;46846;51.528;5.076;2023-05-10T02:05:05;388.88;;;368.17;;
60973;SDS011;46846;51.528;5.076;2023-05-10T02:07:32;417.35;;;394.10;;
60973;SDS011;46846;51.528;5.076;2023-05-10T02:10:00;407.42;;;384.83;;
60973;SDS011;46846;51.528;5.076;2023-05-10T02:12:29;402.85;;;381.83;;
60973;SDS011;46846;51.528;5.076;2023-05-10T02:14:56;420.77;;;398.35;;
60973;SDS011;46846;51.528;5.076;2023-05-10T02:17:24;408.83;;;386.77;;
60973;SDS011;46846;51.528;5.076;2023-05-10T02:19:50;430.83;;;407.95;;
60973;SDS011;46846;51.528;5.076;2023-05-10T02:22:18;423.10;;;399.92;;
60973;SDS011;46846;51.528;5.076;2023-05-10T02:24:45;415.25;;;393.30;;
60973;SDS011;46846;51.528;5.076;2023-05-10T02:27:11;398.38;;;376.70;;
60973;SDS011;46846;51.528;5.076;2023-05-10T02:29:39;412.65;;;390.52;;
60973;SDS011;46846;51.528;5.076;2023-05-10T02:32:04;419.20;;;397.20;;
60973;SDS011;46846;51.528;5.076;2023-05-10T02:34:31;418.83;;;395.17;;
60973;SDS011;46846;51.528;5.076;2023-05-10T02:36:57;405.23;;;383.05;;
60973;SDS011;46846;51.528;5.076;2023-05-10T02:39:24;410.75;;;389.05;;
60973;SDS011;46846;51.528;5.076;2023-05-10T02:41:53;418.00;;;394.85;;
60973;SDS011;46846;51.528;5.076;2023-05-10T02:44:20;423.25;;;400.27;;
60973;SDS011;46846;51.528;5.076;2023-05-10T02:46:48;419.85;;;397.30;;
60973;SDS011;46846;51.528;5.076;2023-05-10T02:49:14;416.55;;;393.30;;
60973;SDS011;46846;51.528;5.076;2023-05-10T02:51:41;430.90;;;407.60;;
60973;SDS011;46846;51.528;5.076;2023-05-10T02:59:22;414.27;;;391.45;;
60973;SDS011;46846;51.528;5.076;2023-05-10T03:01:48;405.33;;;383.02;;
60973;SDS011;46846;51.528;5.076;2023-05-10T03:04:13;410.25;;;388.58;;
60973;SDS011;46846;51.528;5.076;2023-05-10T03:06:40;399.60;;;378.05;;
60973;SDS011;46846;51.528;5.076;2023-05-10T03:09:06;418.67;;;396.05;;
60973;SDS011;46846;51.528;5.076;2023-05-10T03:14:34;413.83;;;391.27;;
60973;SDS011;46846;51.528;5.076;2023-05-10T03:17:23;411.08;;;388.52;;
60973;SDS011;46846;51.528;5.076;2023-05-10T03:20:04;383.03;;;361.20;;
60973;SDS011;46846;51.528;5.076;2023-05-10T03:22:36;415.90;;;393.67;;
60973;SDS011;46846;51.528;5.076;2023-05-10T03:25:06;418.95;;;396.40;;
60973;SDS011;46846;51.528;5.076;2023-05-10T03:27:36;410.73;;;388.83;;
60973;SDS011;46846;51.528;5.076;2023-05-10T03:30:04;431.05;;;408.08;;
60973;SDS011;46846;51.528;5.076;2023-05-10T03:32:30;414.20;;;392.55;;
60973;SDS011;46846;51.528;5.076;2023-05-10T03:34:57;408.75;;;386.92;;
60973;SDS011;46846;51.528;5.076;2023-05-10T03:37:22;399.58;;;377.48;;
60973;SDS011;46846;51.528;5.076;2023-05-10T03:39:48;403.92;;;382.48;;
60973;SDS011;46846;51.528;5.076;2023-05-10T03:42:13;414.30;;;392.08;;
60973;SDS011;46846;51.528;5.076;2023-05-10T03:44:39;418.20;;;396.08;;
60973;SDS011;46846;51.528;5.076;2023-05-10T03:47:05;400.48;;;378.83;;
60973;SDS011;46846;51.528;5.076;2023-05-10T03:49:30;416.17;;;393.92;;
60973;SDS011;46846;51.528;5.076;2023-05-10T03:51:55;401.40;;;379.58;;
60973;SDS011;46846;51.528;5.076;2023-05-10T03:54:21;418.35;;;395.88;;
60973;SDS011;46846;51.528;5.076;2023-05-10T03:56:46;407.05;;;385.27;;
60973;SDS011;46846;51.528;5.076;2023-05-10T03:59:13;429.33;;;406.85;;
60973;SDS011;46846;51.528;5.076;2023-05-10T04:01:38;417.83;;;395.50;;
60973;SDS011;46846;51.528;5.076;2023-05-10T04:04:04;418.75;;;396.48;;
60973;SDS011;46846;51.528;5.076;2023-05-10T04:06:29;426.50;;;404.33;;
60973;SDS011;46846;51.528;5.076;2023-05-10T04:08:55;407.50;;;385.95;;
60973;SDS011;46846;51.528;5.076;2023-05-10T04:13:47;408.27;;;387.02;;
60973;SDS011;46846;51.528;5.076;2023-05-10T04:16:12;405.00;;;383.60;;
60973;SDS011;46846;51.528;5.076;2023-05-10T04:21:04;395.02;;;374.27;;
60973;SDS011;46846;51.528;5.076;2023-05-10T04:23:35;398.88;;;377.80;;
60973;SDS011;46846;51.528;5.076;2023-05-10T04:30:52;395.95;;;375.30;;
60973;SDS011;46846;51.528;5.076;2023-05-10T04:33:17;415.27;;;393.90;;
60973;SDS011;46846;51.528;5.076;2023-05-10T04:35:42;416.10;;;394.08;;
60973;SDS011;46846;51.528;5.076;2023-05-10T04:38:09;416.40;;;394.55;;
60973;SDS011;46846;51.528;5.076;2023-05-10T04:40:35;405.90;;;384.23;;
60973;SDS011;46846;51.528;5.076;2023-05-10T04:43:00;402.77;;;381.88;;
60973;SDS011;46846;51.528;5.076;2023-05-10T04:45:26;394.35;;;373.77;;
60973;SDS011;46846;51.528;5.076;2023-05-10T04:47:51;387.00;;;366.42;;
60973;SDS011;46846;51.528;5.076;2023-05-10T04:50:16;416.75;;;395.05;;
60973;SDS011;46846;51.528;5.076;2023-05-10T04:52:42;411.63;;;390.38;;
60973;SDS011;46846;51.528;5.076;2023-05-10T04:55:07;396.13;;;375.58;;
60973;SDS011;46846;51.528;5.076;2023-05-10T04:57:34;392.50;;;372.30;;
60973;SDS011;46846;51.528;5.076;2023-05-10T04:59:59;423.33;;;401.20;;
60973;SDS011;46846;51.528;5.076;2023-05-10T05:02:25;393.90;;;372.98;;
60973;SDS011;46846;51.528;5.076;2023-05-10T05:04:50;412.88;;;391.67;;
60973;SDS011;46846;51.528;5.076;2023-05-10T05:07:16;403.92;;;383.20;;
60973;SDS011;46846;51.528;5.076;2023-05-10T05:09:41;401.30;;;380.00;;
60973;SDS011;46846;51.528;5.076;2023-05-10T05:16:57;374.80;;;355.07;;
60973;SDS011;46846;51.528;5.076;2023-05-10T05:19:23;401.27;;;380.20;;
60973;SDS011;46846;51.528;5.076;2023-05-10T05:21:48;404.70;;;383.60;;
60973;SDS011;46846;51.528;5.076;2023-05-10T05:24:14;401.27;;;380.35;;
60973;SDS011;46846;51.528;5.076;2023-05-10T05:26:40;391.58;;;370.77;;
60973;SDS011;46846;51.528;5.076;2023-05-10T05:31:30;383.65;;;363.33;;
60973;SDS011;46846;51.528;5.076;2023-05-10T05:36:21;384.88;;;364.25;;
60973;SDS011;46846;51.528;5.076;2023-05-10T05:41:12;392.30;;;370.95;;
60973;SDS011;46846;51.528;5.076;2023-05-10T05:46:03;380.30;;;360.30;;
60973;SDS011;46846;51.528;5.076;2023-05-10T05:48:29;400.70;;;380.00;;
60973;SDS011;46846;51.528;5.076;2023-05-10T05:50:55;386.60;;;366.20;;
60973;SDS011;46846;51.528;5.076;2023-05-10T05:53:21;382.45;;;361.95;;
60973;SDS011;46846;51.528;5.076;2023-05-10T05:55:53;403.35;;;382.25;;
60973;SDS011;46846;51.528;5.076;2023-05-10T05:58:20;397.15;;;376.33;;
60973;SDS011;46846;51.528;5.076;2023-05-10T06:00:46;417.58;;;395.65;;
60973;SDS011;46846;51.528;5.076;2023-05-10T06:03:11;404.65;;;382.83;;
60973;SDS011;46846;51.528;5.076;2023-05-10T06:05:37;411.08;;;389.85;;
60973;SDS011;46846;51.528;5.076;2023-05-10T06:08:02;409.55;;;388.05;;
60973;SDS011;46846;51.528;5.076;2023-05-10T06:12:53;405.30;;;384.52;;
60973;SDS011;46846;51.528;5.076;2023-05-10T06:20:10;376.70;;;356.98;;
60973;SDS011;46846;51.528;5.076;2023-05-10T06:22:36;370.98;;;351.40;;
60973;SDS011;46846;51.528;5.076;2023-05-10T06:25:01;408.60;;;387.05;;
60973;SDS011;46846;51.528;5.076;2023-05-10T06:27:27;396.45;;;375.90;;
60973;SDS011;46846;51.528;5.076;2023-05-10T06:29:53;401.65;;;380.50;;
60973;SDS011;46846;51.528;5.076;2023-05-10T06:32:19;398.00;;;377.02;;
60973;SDS011;46846;51.528;5.076;2023-05-10T06:34:44;384.83;;;364.25;;
60973;SDS011;46846;51.528;5.076;2023-05-10T06:37:09;410.13;;;388.90;;
60973;SDS011;46846;51.528;5.076;2023-05-10T06:39:35;403.20;;;382.30;;
60973;SDS011;46846;51.528;5.076;2023-05-10T06:42:01;403.80;;;383.13;;
60973;SDS011;46846;51.528;5.076;2023-05-10T06:46:55;398.48;;;377.98;;
60973;SDS011;46846;51.528;5.076;2023-05-10T06:49:21;402.27;;;381.55;;
60973;SDS011;46846;51.528;5.076;2023-05-10T06:51:50;388.58;;;368.40;;
60973;SDS011;46846;51.528;5.076;2023-05-10T06:54:15;405.35;;;383.85;;
60973;SDS011;46846;51.528;5.076;2023-05-10T06:56:40;381.25;;;361.70;;
60973;SDS011;46846;51.528;5.076;2023-05-10T06:59:06;425.58;;;404.08;;
60973;SDS011;46846;51.528;5.076;2023-05-10T07:03:56;393.90;;;373.63;;
60973;SDS011;46846;51.528;5.076;2023-05-10T07:11:12;362.40;;;343.98;;
60973;SDS011;46846;51.528;5.076;2023-05-10T07:16:06;367.60;;;347.90;;
60973;SDS011;46846;51.528;5.076;2023-05-10T07:18:33;392.42;;;372.65;;
60973;SDS011;46846;51.528;5.076;2023-05-10T07:20:58;373.15;;;354.15;;
60973;SDS011;46846;51.528;5.076;2023-05-10T07:23:24;387.83;;;368.08;;
60973;SDS011;46846;51.528;5.076;2023-05-10T07:25:50;397.42;;;377.25;;
60973;SDS011;46846;51.528;5.076;2023-05-10T07:28:19;405.50;;;384.88;;
60973;SDS011;46846;51.528;5.076;2023-05-10T07:30:44;391.70;;;371.58;;
60973;SDS011;46846;51.528;5.076;2023-05-10T07:35:37;373.00;;;353.45;;
60973;SDS011;46846;51.528;5.076;2023-05-10T07:38:02;393.40;;;373.77;;
60973;SDS011;46846;51.528;5.076;2023-05-10T07:40:28;388.45;;;368.80;;
60973;SDS011;46846;51.528;5.076;2023-05-10T07:45:19;365.30;;;346.45;;
60973;SDS011;46846;51.528;5.076;2023-05-10T07:47:45;390.23;;;370.73;;
60973;SDS011;46846;51.528;5.076;2023-05-10T07:52:35;378.52;;;358.88;;
60973;SDS011;46846;51.528;5.076;2023-05-10T07:55:01;387.00;;;367.20;;
60973;SDS011;46846;51.528;5.076;2023-05-10T08:02:17;359.73;;;341.63;;
60973;SDS011;46846;51.528;5.076;2023-05-10T08:04:42;399.00;;;379.05;;
60973;SDS011;46846;51.528;5.076;2023-05-10T08:07:08;407.27;;;386.50;;
60973;SDS011;46846;51.528;5.076;2023-05-10T08:09:33;402.42;;;382.45;;
60973;SDS011;46846;51.528;5.076;2023-05-10T08:11:59;389.42;;;369.90;;
60973;SDS011;46846;51.528;5.076;2023-05-10T08:16:50;373.20;;;354.48;;
60973;SDS011;46846;51.528;5.076;2023-05-10T08:21:44;383.85;;;364.40;;
60973;SDS011;46846;51.528;5.076;2023-05-10T08:24:10;400.58;;;380.50;;
60973;SDS011;46846;51.528;5.076;2023-05-10T08:26:35;398.85;;;379.05;;
60973;SDS011;46846;51.528;5.076;2023-05-10T08:31:26;378.73;;;359.85;;
60973;SDS011;46846;51.528;5.076;2023-05-10T08:36:17;410.60;;;390.35;;
60973;SDS011;46846;51.528;5.076;2023-05-10T08:38:46;391.58;;;372.20;;
60973;SDS011;46846;51.528;5.076;2023-05-10T08:41:14;398.35;;;378.65;;
60973;SDS011;46846;51.528;5.076;2023-05-10T08:43:40;411.90;;;391.60;;
60973;SDS011;46846;51.528;5.076;2023-05-10T08:46:11;400.27;;;380.42;;
60973;SDS011;46846;51.528;5.076;2023-05-10T08:48:40;407.95;;;388.02;;
60973;SDS011;46846;51.528;5.076;2023-05-10T08:51:06;424.73;;;403.98;;
60973;SDS011;46846;51.528;5.076;2023-05-10T08:53:34;415.65;;;395.27;;
60973;SDS011;46846;51.528;5.076;2023-05-10T08:56:01;401.10;;;381.33;;
60973;SDS011;46846;51.528;5.076;2023-05-10T08:58:27;400.52;;;380.83;;
60973;SDS011;46846;51.528;5.076;2023-05-10T09:00:53;421.88;;;400.95;;
60973;SDS011;46846;51.528;5.076;2023-05-10T09:03:19;418.90;;;398.23;;
60973;SDS011;46846;51.528;5.076;2023-05-10T09:05:44;411.48;;;391.27;;
60973;SDS011;46846;51.528;5.076;2023-05-10T09:08:10;418.17;;;397.65;;
60973;SDS011;46846;51.528;5.076;2023-05-10T09:10:37;419.75;;;399.20;;
60973;SDS011;46846;51.528;5.076;2023-05-10T09:13:04;419.13;;;398.55;;
60973;SDS011;46846;51.528;5.076;2023-05-10T09:15:30;436.58;;;415.23;;
60973;SDS011;46846;51.528;5.076;2023-05-10T09:17:55;435.30;;;414.00;;
60973;SDS011;46846;51.528;5.076;2023-05-10T09:20:23;425.45;;;403.92;;
60973;SDS011;46846;51.528;5.076;2023-05-10T09:22:49;432.15;;;410.75;;
60973;SDS011;46846;51.528;5.076;2023-05-10T09:25:15;408.45;;;388.35;;
60973;SDS011;46846;51.528;5.076;2023-05-10T09:27:43;413.02;;;392.80;;
60973;SDS011;46846;51.528;5.076;2023-05-10T09:30:10;418.73;;;398.10;;
60973;SDS011;46846;51.528;5.076;2023-05-10T09:32:42;403.55;;;383.27;;
60973;SDS011;46846;51.528;5.076;2023-05-10T09:35:09;417.02;;;396.58;;
60973;SDS011;46846;51.528;5.076;2023-05-10T09:37:36;441.80;;;420.00;;
60973;SDS011;46846;51.528;5.076;2023-05-10T09:40:04;438.40;;;416.90;;
60973;SDS011;46846;51.528;5.076;2023-05-10T09:42:31;435.40;;;414.02;;
60973;SDS011;46846;51.528;5.076;2023-05-10T09:45:00;436.35;;;414.75;;
60973;SDS011;46846;51.528;5.076;2023-05-10T09:47:27;407.98;;;387.63;;
60973;SDS011;46846;51.528;5.076;2023-05-10T09:49:52;426.80;;;405.80;;
60973;SDS011;46846;51.528;5.076;2023-05-10T09:52:18;406.50;;;386.17;;
60973;SDS011;46846;51.528;5.076;2023-05-10T09:54:53;442.40;;;420.73;;
60973;SDS011;46846;51.528;5.076;2023-05-10T09:57:23;442.65;;;420.80;;
60973;SDS011;46846;51.528;5.076;2023-05-10T09:59:49;420.30;;;399.55;;
60973;SDS011;46846;51.528;5.076;2023-05-10T10:02:16;437.23;;;415.60;;
60973;SDS011;46846;51.528;5.076;2023-05-10T10:04:41;447.80;;;425.63;;
60973;SDS011;46846;51.528;5.076;2023-05-10T10:07:07;454.02;;;431.92;;
60973;SDS011;46846;51.528;5.076;2023-05-10T10:09:33;449.67;;;427.67;;
60973;SDS011;46846;51.528;5.076;2023-05-10T10:12:00;431.60;;;410.33;;
60973;SDS011;46846;51.528;5.076;2023-05-10T10:14:26;445.67;;;423.70;;
60973;SDS011;46846;51.528;5.076;2023-05-10T10:16:53;454.35;;;431.92;;
60973;SDS011;46846;51.528;5.076;2023-05-10T10:19:19;452.27;;;430.02;;
60973;SDS011;46846;51.528;5.076;2023-05-10T10:21:45;466.88;;;443.92;;
60973;SDS011;46846;51.528;5.076;2023-05-10T10:24:11;453.20;;;431.00;;
60973;SDS011;46846;51.528;5.076;2023-05-10T10:26:37;466.48;;;443.63;;
60973;SDS011;46846;51.528;5.076;2023-05-10T10:29:19;446.67;;;424.42;;
60973;SDS011;46846;51.528;5.076;2023-05-10T10:37:21;433.70;;;412.35;;
60973;SDS011;46846;51.528;5.076;2023-05-10T10:39:47;449.55;;;427.25;;
60973;SDS011;46846;51.528;5.076;2023-05-10T10:42:13;443.75;;;422.05;;
60973;SDS011;46846;51.528;5.076;2023-05-10T10:44:39;434.38;;;412.88;;
60973;SDS011;46846;51.528;5.076;2023-05-10T10:55:02;432.17;;;411.02;;
60973;SDS011;46846;51.528;5.076;2023-05-10T11:02:45;440.85;;;419.10;;
60973;SDS011;46846;51.528;5.076;2023-05-10T11:05:39;458.20;;;435.80;;
60973;SDS011;46846;51.528;5.076;2023-05-10T11:08:26;469.48;;;446.70;;
60973;SDS011;46846;51.528;5.076;2023-05-10T11:15:53;466.77;;;444.20;;
60973;SDS011;46846;51.528;5.076;2023-05-10T11:18:28;449.25;;;427.35;;
60973;SDS011;46846;51.528;5.076;2023-05-10T11:20:58;460.10;;;437.65;;
60973;SDS011;46846;51.528;5.076;2023-05-10T11:23:32;440.92;;;419.40;;
60973;SDS011;46846;51.528;5.076;2023-05-10T11:26:12;452.45;;;430.33;;
60973;SDS011;46846;51.528;5.076;2023-05-10T11:28:42;435.10;;;413.75;;
60973;SDS011;46846;51.528;5.076;2023-05-10T11:31:09;468.83;;;445.65;;
60973;SDS011;46846;51.528;5.076;2023-05-10T11:33:43;445.08;;;423.35;;
60973;SDS011;46846;51.528;5.076;2023-05-10T11:36:14;460.38;;;438.05;;
60973;SDS011;46846;51.528;5.076;2023-05-10T11:38:41;447.20;;;425.48;;
60973;SDS011;46846;51.528;5.076;2023-05-10T11:41:10;455.63;;;433.63;;
60973;SDS011;46846;51.528;5.076;2023-05-10T11:43:38;472.58;;;449.83;;
60973;SDS011;46846;51.528;5.076;2023-05-10T11:46:07;457.05;;;434.92;;
60973;SDS011;46846;51.528;5.076;2023-05-10T11:48:36;461.25;;;438.90;;
60973;SDS011;46846;51.528;5.076;2023-05-10T11:51:03;448.77;;;426.88;;
60973;SDS011;46846;51.528;5.076;2023-05-10T11:53:30;451.30;;;429.25;;
60973;SDS011;46846;51.528;5.076;2023-05-10T11:56:07;466.60;;;443.88;;
60973;SDS011;46846;51.528;5.076;2023-05-10T11:58:34;466.77;;;444.35;;
60973;SDS011;46846;51.528;5.076;2023-05-10T12:01:01;449.90;;;428.02;;
60973;SDS011;46846;51.528;5.076;2023-05-10T12:03:27;446.60;;;424.88;;
60973;SDS011;46846;51.528;5.076;2023-05-10T12:05:53;440.02;;;418.58;;
60973;SDS011;46846;51.528;5.076;2023-05-10T12:08:24;447.55;;;425.77;;
60973;SDS011;46846;51.528;5.076;2023-05-10T12:10:51;446.02;;;423.90;;
60973;SDS011;46846;51.528;5.076;2023-05-10T12:13:18;466.33;;;443.65;;
60973;SDS011;46846;51.528;5.076;2023-05-10T12:15:45;464.08;;;441.65;;
60973;SDS011;46846;51.528;5.076;2023-05-10T12:18:11;462.90;;;440.55;;
60973;SDS011;46846;51.528;5.076;2023-05-10T12:20:38;459.10;;;436.77;;
60973;SDS011;46846;51.528;5.076;2023-05-10T12:23:04;456.58;;;434.48;;
60973;SDS011;46846;51.528;5.076;2023-05-10T12:25:31;452.42;;;430.42;;
60973;SDS011;46846;51.528;5.076;2023-05-10T12:27:59;455.40;;;433.33;;
60973;SDS011;46846;51.528;5.076;2023-05-10T12:30:30;432.23;;;411.20;;
60973;SDS011;46846;51.528;5.076;2023-05-10T12:33:11;462.92;;;440.48;;
60973;SDS011;46846;51.528;5.076;2023-05-10T12:35:44;438.73;;;417.48;;
60973;SDS011;46846;51.528;5.076;2023-05-10T12:38:29;444.85;;;423.38;;
60973;SDS011;46846;51.528;5.076;2023-05-10T12:40:59;454.27;;;432.30;;
60973;SDS011;46846;51.528;5.076;2023-05-10T12:43:25;432.60;;;411.50;;
60973;SDS011;46846;51.528;5.076;2023-05-10T12:45:51;460.02;;;437.88;;
60973;SDS011;46846;51.528;5.076;2023-05-10T12:48:16;458.13;;;435.92;;
60973;SDS011;46846;51.528;5.076;2023-05-10T12:50:42;458.35;;;436.05;;
60973;SDS011;46846;51.528;5.076;2023-05-10T12:53:07;441.13;;;419.45;;
60973;SDS011;46846;51.528;5.076;2023-05-10T12:55:33;451.58;;;429.70;;
60973;SDS011;46846;51.528;5.076;2023-05-10T12:57:58;446.73;;;425.02;;
60973;SDS011;46846;51.528;5.076;2023-05-10T13:00:24;448.05;;;426.27;;
60973;SDS011;46846;51.528;5.076;2023-05-10T13:02:50;450.75;;;428.83;;
60973;SDS011;46846;51.528;5.076;2023-05-10T13:05:15;459.70;;;437.35;;
60973;SDS011;46846;51.528;5.076;2023-05-10T13:07:40;475.17;;;452.17;;
60973;SDS011;46846;51.528;5.076;2023-05-10T13:10:06;457.75;;;435.63;;
60973;SDS011;46846;51.528;5.076;2023-05-10T13:12:32;463.33;;;440.27;;
60973;SDS011;46846;51.528;5.076;2023-05-10T13:14:57;471.98;;;449.02;;
60973;SDS011;46846;51.528;5.076;2023-05-10T13:17:24;444.67;;;422.80;;
60973;SDS011;46846;51.528;5.076;2023-05-10T13:19:50;457.20;;;434.63;;
60973;SDS011;46846;51.528;5.076;2023-05-10T13:22:16;452.80;;;430.65;;
60973;SDS011;46846;51.528;5.076;2023-05-10T13:24:41;463.88;;;441.08;;
60973;SDS011;46846;51.528;5.076;2023-05-10T13:27:06;469.05;;;446.17;;
60973;SDS011;46846;51.528;5.076;2023-05-10T13:29:32;436.00;;;414.55;;
60973;SDS011;46846;51.528;5.076;2023-05-10T13:31:58;474.75;;;451.48;;
60973;SDS011;46846;51.528;5.076;2023-05-10T13:34:23;465.27;;;442.55;;
60973;SDS011;46846;51.528;5.076;2023-05-10T13:36:49;463.42;;;440.90;;
60973;SDS011;46846;51.528;5.076;2023-05-10T13:39:14;470.25;;;447.38;;
60973;SDS011;46846;51.528;5.076;2023-05-10T13:41:40;442.45;;;420.92;;
60973;SDS011;46846;51.528;5.076;2023-05-10T13:44:06;466.48;;;443.88;;
60973;SDS011;46846;51.528;5.076;2023-05-10T13:46:31;456.17;;;434.08;;
60973;SDS011;46846;51.528;5.076;2023-05-10T13:48:56;462.25;;;439.75;;
60973;SDS011;46846;51.528;5.076;2023-05-10T13:51:22;445.50;;;423.80;;
60973;SDS011;46846;51.528;5.076;2023-05-10T13:53:47;456.02;;;433.35;;
60973;SDS011;46846;51.528;5.076;2023-05-10T13:56:13;471.20;;;448.15;;
60973;SDS011;46846;51.528;5.076;2023-05-10T13:58:39;460.20;;;437.65;;
60973;SDS011;46846;51.528;5.076;2023-05-10T14:01:04;461.40;;;438.75;;
60973;SDS011;46846;51.528;5.076;2023-05-10T14:03:30;457.08;;;434.73;;
60973;SDS011;46846;51.528;5.076;2023-05-10T14:05:56;475.63;;;452.55;;
60973;SDS011;46846;51.528;5.076;2023-05-10T14:08:21;454.55;;;432.25;;
60973;SDS011;46846;51.528;5.076;2023-05-10T14:10:47;479.98;;;456.67;;
60973;SDS011;46846;51.528;5.076;2023-05-10T14:13:13;472.33;;;449.13;;
60973;SDS011;46846;51.528;5.076;2023-05-10T14:15:40;461.95;;;439.40;;
60973;SDS011;46846;51.528;5.076;2023-05-10T14:18:06;467.27;;;444.60;;
60973;SDS011;46846;51.528;5.076;2023-05-10T14:20:31;455.33;;;432.92;;
60973;SDS011;46846;51.528;5.076;2023-05-10T14:22:58;462.95;;;440.05;;
60973;SDS011;46846;51.528;5.076;2023-05-10T14:25:24;450.83;;;428.70;;
60973;SDS011;46846;51.528;5.076;2023-05-10T14:27:50;472.92;;;450.00;;
60973;SDS011;46846;51.528;5.076;2023-05-10T14:30:15;461.50;;;439.05;;
60973;SDS011;46846;51.528;5.076;2023-05-10T14:32:41;469.05;;;446.23;;
60973;SDS011;46846;51.528;5.076;2023-05-10T14:35:06;467.70;;;445.00;;
60973;SDS011;46846;51.528;5.076;2023-05-10T14:37:32;460.20;;;437.67;;
60973;SDS011;46846;51.528;5.076;2023-05-10T14:39:58;475.55;;;452.45;;
60973;SDS011;46846;51.528;5.076;2023-05-10T14:42:23;464.40;;;441.77;;
60973;SDS011;46846;51.528;5.076;2023-05-10T14:44:48;460.83;;;438.33;;
60973;SDS011;46846;51.528;5.076;2023-05-10T14:47:14;467.80;;;444.88;;
60973;SDS011;46846;51.528;5.076;2023-05-10T14:49:39;461.00;;;438.52;;
60973;SDS011;46846;51.528;5.076;2023-05-10T14:52:05;469.02;;;446.27;;
60973;SDS011;46846;51.528;5.076;2023-05-10T14:54:31;458.17;;;435.88;;
60973;SDS011;46846;51.528;5.076;2023-05-10T14:56:58;453.67;;;431.27;;
60973;SDS011;46846;51.528;5.076;2023-05-10T14:59:24;455.95;;;433.80;;
60973;SDS011;46846;51.528;5.076;2023-05-10T15:01:49;459.35;;;437.10;;
60973;SDS011;46846;51.528;5.076;2023-05-10T15:04:15;482.92;;;459.48;;
60973;SDS011;46846;51.528;5.076;2023-05-10T15:06:41;455.63;;;433.30;;
60973;SDS011;46846;51.528;5.076;2023-05-10T15:09:06;465.05;;;442.25;;
60973;SDS011;46846;51.528;5.076;2023-05-10T15:11:32;484.73;;;461.30;;
60973;SDS011;46846;51.528;5.076;2023-05-10T15:13:57;483.77;;;459.33;;
60973;SDS011;46846;51.528;5.076;2023-05-10T15:16:23;450.05;;;428.15;;
60973;SDS011;46846;51.528;5.076;2023-05-10T15:18:48;479.83;;;456.60;;
60973;SDS011;46846;51.528;5.076;2023-05-10T15:21:14;466.50;;;443.55;;
60973;SDS011;46846;51.528;5.076;2023-05-10T15:23:39;461.10;;;438.83;;
60973;SDS011;46846;51.528;5.076;2023-05-10T15:26:05;474.67;;;451.33;;
60973;SDS011;46846;51.528;5.076;2023-05-10T15:28:30;473.67;;;450.73;;
60973;SDS011;46846;51.528;5.076;2023-05-10T15:30:56;470.85;;;447.80;;
60973;SDS011;46846;51.528;5.076;2023-05-10T15:33:22;481.13;;;457.60;;
60973;SDS011;46846;51.528;5.076;2023-05-10T15:35:47;481.05;;;457.52;;
60973;SDS011;46846;51.528;5.076;2023-05-10T15:38:13;466.50;;;443.88;;
60973;SDS011;46846;51.528;5.076;2023-05-10T15:40:38;454.35;;;431.85;;
60973;SDS011;46846;51.528;5.076;2023-05-10T15:43:04;470.73;;;447.50;;
60973;SDS011;46846;51.528;5.076;2023-05-10T15:45:30;455.25;;;433.10;;
60973;SDS011;46846;51.528;5.076;2023-05-10T15:47:55;473.70;;;450.83;;
60973;SDS011;46846;51.528;5.076;2023-05-10T15:50:21;483.50;;;460.02;;
60973;SDS011;46846;51.528;5.076;2023-05-10T15:52:47;483.67;;;460.27;;